Huvudsida
METAR-TAF:

METAR-TAF

Flygplatser :

Palangas internationella flygplats

Palanga, Litauen

latitud: 55-55-12N, longitud: 021-03E, höjd: 10 m

Aktuellt väderrapport

Denna rapport gjordes för 38 minuter sedan, klockan 22:20 UTC
Vind 5 kt från syd/sydost
Temperatur -8°C
Fuktighet 85%
Tryck 1015 hPa
Sikt 10 km eller mer
Inga moln under 1 500 m eller inga cumulonimbus

METAR: EYPA 232220Z 15005KT CAVOK M08/M10 Q1015 R19/910295

Tid: 00:58 (22:58 UTC)

Väderprognos

Denna rapport gjordes för 5 timmar och 56 minuter sedan, klockan 17:02 UTC
Prognos gäller från 23 kl. 18 UTC till 24 kl. 18 UTC
Vind 5 kt varierande vindriktning
Sikt: 5000 m
fuktdis
Sannolikhet 40% :
Temporärt
från 23 kl. 18 UTC till 24 kl. 06 UTC
Sikt: 3000 m
Brutna moln på en höjd av 300 ft
Blir
från 24 kl. 08 UTC till 24 kl. 10 UTC
Sikt: 8000 m
Spridda moln på en höjd av 4000 ft

TAF: EYPA 231702Z 2318/2418 VRB05KT 5000 BR NSC PROB40 TEMPO 2318/2406 3000 BKN003 BECMG 2408/2410 8000 SCT040

Aktuella väderrapporter och prognoser från 4000 flygplatser (METAR- och TAF-rapporter).

De tillgängliga stationerna syns som gula och röda prickar på kartan.

För musen över prickarna för att se namnen på stationerna.

Klicka sedan för att få väderrapporter och prognoser.

För att ändra kartan: Klicka på de gröna knapparna med ett svart kors på för att zooma in; den gröna knappen med ett streck på för att zooma ut; eller på de gröna pilarna för angränsande kartor.


METAR-TAF: